createdAt,value
2022-09-22T00:01:59.242Z,4.23
2022-09-22T00:07:01.721Z,6.17
2022-09-22T00:12:04.985Z,4.77
2022-09-22T00:17:07.524Z,5.27
2022-09-22T00:22:10.346Z,3.50
2022-09-22T00:27:12.779Z,3.80
2022-09-22T00:32:15.160Z,7.50
2022-09-22T00:37:17.514Z,5.73
2022-09-22T00:42:20.551Z,12.50
2022-09-22T00:47:37.322Z,6.37
2022-09-22T00:52:49.152Z,5.50
2022-09-22T00:57:53.297Z,7.40
2022-09-22T01:02:59.180Z,6.33
2022-09-22T01:08:02.621Z,9.67
2022-09-22T01:13:17.990Z,3.83
2022-09-22T01:18:31.732Z,5.50
2022-09-22T01:24:14.592Z,3.73
2022-09-22T01:29:37.166Z,5.30
2022-09-22T01:35:21.617Z,7.57
2022-09-22T01:40:30.600Z,5.77
2022-09-22T01:45:35.496Z,5.00
2022-09-22T01:50:44.344Z,5.13
2022-09-22T01:56:01.299Z,5.33
2022-09-22T02:01:14.250Z,6.23
2022-09-22T02:06:25.954Z,7.13
2022-09-22T02:11:28.324Z,4.70
2022-09-22T02:16:32.064Z,5.90
2022-09-22T02:21:34.651Z,5.27
2022-09-22T02:26:37.317Z,5.40
2022-09-22T02:31:40.354Z,8.77
2022-09-22T02:37:11.320Z,5.50
2022-09-22T02:42:39.888Z,30.40
2022-09-22T02:48:15.213Z,11.80
2022-09-22T02:53:18.258Z,10.37
2022-09-22T02:58:20.767Z,8.07
2022-09-22T03:03:23.221Z,10.70
2022-09-22T03:08:25.650Z,6.03
2022-09-22T03:13:28.007Z,4.97
2022-09-22T03:18:30.365Z,7.17
2022-09-22T03:23:32.677Z,6.87
2022-09-22T03:28:35.702Z,4.43
2022-09-22T03:33:38.655Z,6.20
2022-09-22T03:38:40.985Z,7.27
2022-09-22T03:43:43.460Z,15.90
2022-09-22T03:48:45.839Z,7.40
2022-09-22T03:53:48.307Z,4.03
2022-09-22T03:58:50.693Z,4.90
2022-09-22T04:03:53.133Z,7.80
2022-09-22T04:08:55.877Z,7.20
2022-09-22T04:13:59.921Z,14.77
2022-09-22T04:19:05.041Z,14.63
2022-09-22T04:24:11.524Z,7.47
2022-09-22T04:29:14.331Z,7.73
2022-09-22T04:34:16.756Z,9.33
2022-09-22T04:39:23.802Z,7.90
2022-09-22T04:44:26.549Z,15.10
2022-09-22T04:49:28.983Z,11.50
2022-09-22T04:54:31.809Z,10.80
2022-09-22T04:59:35.418Z,19.10
2022-09-22T05:04:37.812Z,17.10
2022-09-22T05:09:40.332Z,9.87
2022-09-22T05:14:42.853Z,13.17
2022-09-22T05:19:46.670Z,12.33
2022-09-22T05:24:49.220Z,9.40
2022-09-22T05:29:52.406Z,8.70
2022-09-22T05:34:55.543Z,7.90
2022-09-22T05:39:57.937Z,8.83
2022-09-22T05:45:03.102Z,10.87
2022-09-22T05:50:07.207Z,8.93
2022-09-22T05:55:10.477Z,10.30
2022-09-22T06:00:13.169Z,7.73
2022-09-22T06:05:18.167Z,8.60
2022-09-22T06:10:21.577Z,7.23
2022-09-22T06:15:24.033Z,10.27
2022-09-22T06:20:27.057Z,7.80
2022-09-22T06:25:30.110Z,5.30
2022-09-22T06:30:34.516Z,6.23
2022-09-22T06:35:37.682Z,6.07
2022-09-22T06:40:40.445Z,8.63
2022-09-22T06:45:43.137Z,7.30
2022-09-22T06:50:53.741Z,5.93
2022-09-22T06:55:56.084Z,4.50
2022-09-22T07:01:08.894Z,2.77
2022-09-22T07:06:20.220Z,4.37
2022-09-22T07:11:23.729Z,2.50
2022-09-22T07:16:27.080Z,2.43
2022-09-22T07:21:36.660Z,2.83
2022-09-22T07:26:39.866Z,2.50
2022-09-22T07:31:43.684Z,2.90
2022-09-22T07:36:46.498Z,4.73
2022-09-22T07:41:48.846Z,2.43
2022-09-22T07:46:51.267Z,7.90
2022-09-22T07:51:57.778Z,3.63
2022-09-22T07:57:00.207Z,5.10
2022-09-22T08:02:02.977Z,8.97
2022-09-22T08:07:05.360Z,9.80
2022-09-22T08:12:07.807Z,6.43
2022-09-22T08:17:12.821Z,4.37
2022-09-22T08:22:15.790Z,5.53
2022-09-22T08:27:19.054Z,13.67
2022-09-22T08:32:21.935Z,10.23
2022-09-22T08:37:27.335Z,12.33
2022-09-22T08:42:29.956Z,6.97
2022-09-22T08:47:58.158Z,9.50
2022-09-22T08:53:03.863Z,5.53
2022-09-22T08:58:28.522Z,8.43
2022-09-22T09:03:54.971Z,10.13
2022-09-22T09:09:05.052Z,13.77
2022-09-22T09:14:25.798Z,8.93
2022-09-22T09:19:56.137Z,8.13
2022-09-22T09:30:26.760Z,1.43
2022-09-22T09:35:47.998Z,8.67
2022-09-22T09:40:57.975Z,9.97
2022-09-22T09:46:33.194Z,9.30
2022-09-22T09:51:40.395Z,6.80
2022-09-22T09:57:02.779Z,7.63
2022-09-22T10:02:13.396Z,4.87
2022-09-22T10:07:23.140Z,0.40
2022-09-22T10:12:29.337Z,2.83
2022-09-22T10:17:42.662Z,3.43
2022-09-22T10:22:45.535Z,2.33
2022-09-22T10:28:02.777Z,6.00
2022-09-22T10:33:14.529Z,1.50
2022-09-22T10:38:24.115Z,1.73
2022-09-22T10:43:35.628Z,2.13
2022-09-22T10:48:49.233Z,2.50
2022-09-22T10:53:57.879Z,3.97
2022-09-22T10:59:06.483Z,7.00
2022-09-22T11:04:31.555Z,6.07
2022-09-22T11:09:58.980Z,2.87
2022-09-22T11:15:26.530Z,4.60
2022-09-22T11:20:48.430Z,2.57
2022-09-22T11:26:13.410Z,3.23
2022-09-22T11:31:54.342Z,0.87
2022-09-22T11:37:31.743Z,0.90
2022-09-22T11:42:59.364Z,1.93
2022-09-22T11:48:07.284Z,1.43
2022-09-22T11:53:21.368Z,2.33
2022-09-22T11:58:27.237Z,2.30
2022-09-22T12:03:38.215Z,1.13
2022-09-22T12:09:17.736Z,2.53
2022-09-22T12:14:24.005Z,2.27
2022-09-22T12:19:41.355Z,2.90
2022-09-22T12:24:47.546Z,2.77
2022-09-22T12:30:11.332Z,2.77
2022-09-22T12:35:28.721Z,2.23
2022-09-22T12:40:38.016Z,0.80
2022-09-22T12:45:43.604Z,1.20
2022-09-22T12:50:46.550Z,3.80
2022-09-22T12:55:50.532Z,2.27
2022-09-22T13:00:54.601Z,1.67
2022-09-22T13:05:58.194Z,0.97
2022-09-22T13:11:01.312Z,0.60
2022-09-22T13:16:15.701Z,1.47
2022-09-22T13:21:22.363Z,0.60
2022-09-22T13:26:41.900Z,0.70
2022-09-22T13:31:54.396Z,0.60
2022-09-22T13:37:00.568Z,1.50
2022-09-22T13:42:12.940Z,0.40
2022-09-22T13:47:19.751Z,2.47
2022-09-22T13:52:27.437Z,1.80
2022-09-22T13:57:34.688Z,1.87
2022-09-22T14:02:44.469Z,2.03
2022-09-22T14:08:07.911Z,1.67
2022-09-22T14:13:39.048Z,9.93
2022-09-22T14:18:45.147Z,1.70
2022-09-22T14:23:49.870Z,5.37
2022-09-22T14:28:52.493Z,2.50
2022-09-22T14:33:55.729Z,2.30
2022-09-22T14:39:09.562Z,1.70
2022-09-22T14:44:42.489Z,5.30
2022-09-22T14:49:47.570Z,3.30
2022-09-22T14:54:50.231Z,4.40
2022-09-22T15:00:33.844Z,2.50
2022-09-22T15:05:37.648Z,3.37
2022-09-22T15:10:41.339Z,1.27
2022-09-22T15:15:48.246Z,2.27
2022-09-22T15:20:53.035Z,1.40
2022-09-22T15:25:56.217Z,3.40
2022-09-22T15:30:58.791Z,4.43
2022-09-22T15:36:03.869Z,1.73
2022-09-22T15:41:12.138Z,1.40
2022-09-22T15:46:23.297Z,0.93
2022-09-22T15:51:26.031Z,1.50
2022-09-22T15:56:30.143Z,1.80
2022-09-22T16:01:32.476Z,1.50
2022-09-22T16:06:34.836Z,1.20
2022-09-22T16:11:37.335Z,1.83
2022-09-22T16:16:43.119Z,1.57
2022-09-22T16:21:51.259Z,1.30
2022-09-22T16:26:54.257Z,4.20
2022-09-22T16:31:56.703Z,2.30
2022-09-22T16:36:59.236Z,6.17
2022-09-22T16:42:01.652Z,2.00
2022-09-22T16:47:04.259Z,4.40
2022-09-22T16:52:07.617Z,3.63
2022-09-22T16:57:09.999Z,2.37
2022-09-22T17:02:12.476Z,5.93
2022-09-22T17:07:17.427Z,4.60
2022-09-22T17:12:20.395Z,5.63
2022-09-22T17:17:22.712Z,10.07
2022-09-22T17:22:25.158Z,12.73
2022-09-22T17:27:27.509Z,8.20
2022-09-22T17:32:30.229Z,11.93
2022-09-22T17:37:32.590Z,38.93
2022-09-22T17:42:37.618Z,93.37
2022-09-22T17:47:58.835Z,96.47
2022-09-22T17:53:19.651Z,49.63
2022-09-22T17:58:22.731Z,39.90
2022-09-22T18:03:25.033Z,34.57
2022-09-22T18:08:27.327Z,33.93
2022-09-22T18:13:29.797Z,23.47
2022-09-22T18:18:32.093Z,30.43
2022-09-22T18:23:34.415Z,21.90
2022-09-22T18:28:36.942Z,19.00
2022-09-22T18:33:39.266Z,16.23
2022-09-22T18:38:42.359Z,16.10
2022-09-22T18:43:45.651Z,14.40
2022-09-22T18:48:57.498Z,30.20
2022-09-22T18:54:02.121Z,29.03
2022-09-22T18:59:05.649Z,38.27
2022-09-22T19:04:17.391Z,15.67
2022-09-22T19:09:20.773Z,19.70
2022-09-22T19:14:24.831Z,56.53
2022-09-22T19:19:27.239Z,42.83
2022-09-22T19:24:32.482Z,25.60
2022-09-22T19:29:35.519Z,18.27
2022-09-22T19:34:37.850Z,20.63
2022-09-22T19:39:40.239Z,24.03
2022-09-22T19:44:42.552Z,33.87
2022-09-22T19:49:44.857Z,36.73
2022-09-22T19:54:47.690Z,34.67
2022-09-22T19:59:50.818Z,33.57
2022-09-22T20:04:55.922Z,27.10
2022-09-22T20:09:58.220Z,32.20
2022-09-22T20:15:00.842Z,28.50
2022-09-22T20:20:03.304Z,32.03
2022-09-22T20:25:06.077Z,28.67
2022-09-22T20:30:10.203Z,33.90
2022-09-22T20:35:15.035Z,33.60
2022-09-22T20:40:20.521Z,31.00
2022-09-22T20:45:23.120Z,34.33
2022-09-22T20:50:25.565Z,33.60
2022-09-22T20:55:27.933Z,40.63
2022-09-22T21:00:30.372Z,26.33
2022-09-22T21:05:33.127Z,26.07
2022-09-22T21:10:35.731Z,20.23
2022-09-22T21:15:38.946Z,19.20
2022-09-22T21:20:41.488Z,24.10
2022-09-22T21:25:43.888Z,25.03
2022-09-22T21:30:58.230Z,31.33
2022-09-22T21:36:13.789Z,21.80
2022-09-22T21:41:21.413Z,25.07
2022-09-22T21:46:29.613Z,26.67
2022-09-22T21:51:37.766Z,23.20
2022-09-22T21:56:40.153Z,23.87
2022-09-22T22:01:45.078Z,18.33
2022-09-22T22:06:47.550Z,22.63
2022-09-22T22:11:56.376Z,20.67
2022-09-22T22:16:59.328Z,17.87
2022-09-22T22:22:01.791Z,17.97
2022-09-22T22:27:06.873Z,17.97
2022-09-22T22:32:10.632Z,24.13
2022-09-22T22:37:13.103Z,42.73
2022-09-22T22:42:15.399Z,27.13
2022-09-22T22:47:17.676Z,24.30
2022-09-22T22:52:19.956Z,19.67
2022-09-22T22:57:22.502Z,17.30
2022-09-22T23:02:24.904Z,16.37
2022-09-22T23:07:27.742Z,18.77
2022-09-22T23:12:30.989Z,17.30
2022-09-22T23:17:33.783Z,17.60
2022-09-22T23:22:36.093Z,20.70
2022-09-22T23:27:38.419Z,20.53
2022-09-22T23:32:40.815Z,21.30
2022-09-22T23:37:43.102Z,19.73
2022-09-22T23:42:45.366Z,19.10
2022-09-22T23:47:47.685Z,22.53
2022-09-22T23:52:50.930Z,23.17
2022-09-22T23:57:53.238Z,20.53
